KRNH/RNH METAR and TAF weather

Enter ICAO airport designator
Station Type Date Time Source
KRNH METAR 2020/09/20 00:35 UTC NOAA

KRNH 200035Z AUTO 15004KT 10SM SCT075 16/08 A3017 RMK AO2 T01600083


Station Type Date Time Source
KRNH Decoded METAR 2020/09/20 00:35 UTC NOAA

New Richmond, New Richmond Municipal Airport, WI, United States (KRNH) 45-08-54N 092-32-17W
Sep 19, 2020 - 08:35 PM EDT / 2020.09.20 0035 UTC
Wind: from the SSE (150 degrees) at 5 MPH (4 KT):0
Visibility: 10 mile(s):0
Sky conditions: partly cloudy
Temperature: 60.8 F (16.0 C)
Dew Point: 46.9 F (8.3 C)
Relative Humidity: 60%
Pressure (altimeter): 30.17 in. Hg (1021 hPa)
ob: KRNH 200035Z AUTO 15004KT 10SM SCT075 16/08 A3017 RMK AO2 T01600083
cycle: 0

Station Type Date Time Source
KRNH TAF 2020/09/19 18:42 UTC NOAA

TAF KRNH 191739Z 1918/2018 19012KT P6SM SCT070 BKN200
FM200100 16010KT P6SM BKN250
FM200900 15012G20KT P6SM BKN250
FM201400 17018G32KT P6SM FEW120 BKN250

Example: see airport list